sensor_id;sensor_type;location;lat;lon;timestamp;temperature;humidity
26954;DHT22;14508;50.924;11.600;2023-09-19T00:00:45;17.80;99.90
26954;DHT22;14508;50.924;11.600;2023-09-19T00:03:16;17.80;99.90
26954;DHT22;14508;50.924;11.600;2023-09-19T00:05:44;17.80;99.90
26954;DHT22;14508;50.924;11.600;2023-09-19T00:08:13;17.80;99.90
26954;DHT22;14508;50.924;11.600;2023-09-19T00:10:42;17.70;99.90
26954;DHT22;14508;50.924;11.600;2023-09-19T00:13:10;17.70;99.90
26954;DHT22;14508;50.924;11.600;2023-09-19T00:15:42;17.70;99.90
26954;DHT22;14508;50.924;11.600;2023-09-19T00:18:18;17.60;99.90
26954;DHT22;14508;50.924;11.600;2023-09-19T00:20:47;17.70;99.90
26954;DHT22;14508;50.924;11.600;2023-09-19T00:23:16;17.60;99.90
26954;DHT22;14508;50.924;11.600;2023-09-19T00:25:44;17.60;99.90
26954;DHT22;14508;50.924;11.600;2023-09-19T00:28:12;17.60;99.90
26954;DHT22;14508;50.924;11.600;2023-09-19T00:30:44;17.60;99.90
26954;DHT22;14508;50.924;11.600;2023-09-19T00:33:12;17.60;99.90
26954;DHT22;14508;50.924;11.600;2023-09-19T00:35:48;17.60;99.90
26954;DHT22;14508;50.924;11.600;2023-09-19T00:38:16;17.60;99.90
26954;DHT22;14508;50.924;11.600;2023-09-19T00:40:49;17.60;99.90
26954;DHT22;14508;50.924;11.600;2023-09-19T00:43:17;17.50;99.90
26954;DHT22;14508;50.924;11.600;2023-09-19T00:45:47;17.60;99.90
26954;DHT22;14508;50.924;11.600;2023-09-19T00:48:16;17.60;99.90
26954;DHT22;14508;50.924;11.600;2023-09-19T00:50:47;17.60;99.90
26954;DHT22;14508;50.924;11.600;2023-09-19T00:53:18;17.60;99.90
26954;DHT22;14508;50.924;11.600;2023-09-19T00:55:48;17.60;99.90
26954;DHT22;14508;50.924;11.600;2023-09-19T00:58:17;17.60;99.90
26954;DHT22;14508;50.924;11.600;2023-09-19T01:00:47;17.60;99.90
26954;DHT22;14508;50.924;11.600;2023-09-19T01:03:15;17.60;99.90
26954;DHT22;14508;50.924;11.600;2023-09-19T01:05:45;17.60;99.90
26954;DHT22;14508;50.924;11.600;2023-09-19T01:08:14;17.60;99.90
26954;DHT22;14508;50.924;11.600;2023-09-19T01:10:49;17.60;99.90
26954;DHT22;14508;50.924;11.600;2023-09-19T01:13:25;17.50;99.90
26954;DHT22;14508;50.924;11.600;2023-09-19T01:16:03;17.50;99.90
26954;DHT22;14508;50.924;11.600;2023-09-19T01:18:52;17.50;99.90
26954;DHT22;14508;50.924;11.600;2023-09-19T01:21:28;17.50;99.90
26954;DHT22;14508;50.924;11.600;2023-09-19T01:24:25;17.40;99.90
26954;DHT22;14508;50.924;11.600;2023-09-19T01:27:17;17.50;99.90
26954;DHT22;14508;50.924;11.600;2023-09-19T01:29:49;17.50;99.90
26954;DHT22;14508;50.924;11.600;2023-09-19T01:32:21;17.50;99.90
26954;DHT22;14508;50.924;11.600;2023-09-19T01:34:53;17.50;99.90
26954;DHT22;14508;50.924;11.600;2023-09-19T01:37:23;17.50;99.90
26954;DHT22;14508;50.924;11.600;2023-09-19T01:39:55;17.40;99.90
26954;DHT22;14508;50.924;11.600;2023-09-19T01:42:31;17.40;99.90
26954;DHT22;14508;50.924;11.600;2023-09-19T01:45:07;17.40;99.90
26954;DHT22;14508;50.924;11.600;2023-09-19T01:47:46;17.40;99.90
26954;DHT22;14508;50.924;11.600;2023-09-19T01:50:22;17.40;99.90
26954;DHT22;14508;50.924;11.600;2023-09-19T01:52:57;17.40;99.90
26954;DHT22;14508;50.924;11.600;2023-09-19T01:55:29;17.40;99.90
26954;DHT22;14508;50.924;11.600;2023-09-19T01:58:04;17.40;99.90
26954;DHT22;14508;50.924;11.600;2023-09-19T02:00:37;17.40;99.90
26954;DHT22;14508;50.924;11.600;2023-09-19T02:03:08;17.50;99.90
26954;DHT22;14508;50.924;11.600;2023-09-19T02:05:39;17.40;99.90
26954;DHT22;14508;50.924;11.600;2023-09-19T02:08:08;17.50;99.90
26954;DHT22;14508;50.924;11.600;2023-09-19T02:10:37;17.50;99.90
26954;DHT22;14508;50.924;11.600;2023-09-19T02:13:05;17.40;99.90
26954;DHT22;14508;50.924;11.600;2023-09-19T02:15:33;17.50;99.90
26954;DHT22;14508;50.924;11.600;2023-09-19T02:18:03;17.50;99.90
26954;DHT22;14508;50.924;11.600;2023-09-19T02:20:31;17.50;99.90
26954;DHT22;14508;50.924;11.600;2023-09-19T02:23:00;17.50;99.90
26954;DHT22;14508;50.924;11.600;2023-09-19T02:25:29;17.50;99.90
26954;DHT22;14508;50.924;11.600;2023-09-19T02:27:57;17.50;99.90
26954;DHT22;14508;50.924;11.600;2023-09-19T02:30:28;17.50;99.90
26954;DHT22;14508;50.924;11.600;2023-09-19T02:32:56;17.50;99.90
26954;DHT22;14508;50.924;11.600;2023-09-19T02:35:24;17.60;99.90
26954;DHT22;14508;50.924;11.600;2023-09-19T02:37:55;17.60;99.90
26954;DHT22;14508;50.924;11.600;2023-09-19T02:40:23;17.50;99.90
26954;DHT22;14508;50.924;11.600;2023-09-19T02:42:54;17.50;99.90
26954;DHT22;14508;50.924;11.600;2023-09-19T02:45:22;17.50;99.90
26954;DHT22;14508;50.924;11.600;2023-09-19T02:47:51;17.50;99.90
26954;DHT22;14508;50.924;11.600;2023-09-19T02:50:19;17.50;99.90
26954;DHT22;14508;50.924;11.600;2023-09-19T02:52:48;17.50;99.90
26954;DHT22;14508;50.924;11.600;2023-09-19T02:55:18;17.50;99.90
26954;DHT22;14508;50.924;11.600;2023-09-19T02:57:49;17.50;99.90
26954;DHT22;14508;50.924;11.600;2023-09-19T03:00:20;17.60;99.90
26954;DHT22;14508;50.924;11.600;2023-09-19T03:02:49;17.50;99.90
26954;DHT22;14508;50.924;11.600;2023-09-19T03:05:19;17.50;99.90
26954;DHT22;14508;50.924;11.600;2023-09-19T03:07:48;17.50;99.90
26954;DHT22;14508;50.924;11.600;2023-09-19T03:10:20;17.50;99.90
26954;DHT22;14508;50.924;11.600;2023-09-19T03:12:48;17.50;99.90
26954;DHT22;14508;50.924;11.600;2023-09-19T03:15:17;17.60;99.90
26954;DHT22;14508;50.924;11.600;2023-09-19T03:17:48;17.50;99.90
26954;DHT22;14508;50.924;11.600;2023-09-19T03:20:20;17.50;99.90
26954;DHT22;14508;50.924;11.600;2023-09-19T03:22:50;17.60;99.90
26954;DHT22;14508;50.924;11.600;2023-09-19T03:25:21;17.60;99.90
26954;DHT22;14508;50.924;11.600;2023-09-19T03:27:51;17.60;99.90
26954;DHT22;14508;50.924;11.600;2023-09-19T03:30:21;17.70;99.90
26954;DHT22;14508;50.924;11.600;2023-09-19T03:32:49;17.70;99.90
26954;DHT22;14508;50.924;11.600;2023-09-19T03:35:18;17.70;99.90
26954;DHT22;14508;50.924;11.600;2023-09-19T03:37:47;17.70;99.90
26954;DHT22;14508;50.924;11.600;2023-09-19T03:40:17;17.70;99.90
26954;DHT22;14508;50.924;11.600;2023-09-19T03:42:49;17.60;99.90
26954;DHT22;14508;50.924;11.600;2023-09-19T03:45:17;17.60;99.90
26954;DHT22;14508;50.924;11.600;2023-09-19T03:47:50;17.50;99.90
26954;DHT22;14508;50.924;11.600;2023-09-19T03:50:21;17.50;99.90
26954;DHT22;14508;50.924;11.600;2023-09-19T03:52:50;17.50;99.90
26954;DHT22;14508;50.924;11.600;2023-09-19T03:55:18;17.40;99.90
26954;DHT22;14508;50.924;11.600;2023-09-19T03:57:49;17.40;99.90
26954;DHT22;14508;50.924;11.600;2023-09-19T04:00:17;17.40;99.90
26954;DHT22;14508;50.924;11.600;2023-09-19T04:02:48;17.30;99.90
26954;DHT22;14508;50.924;11.600;2023-09-19T04:05:16;17.30;99.90
26954;DHT22;14508;50.924;11.600;2023-09-19T04:07:45;17.20;99.90
26954;DHT22;14508;50.924;11.600;2023-09-19T04:10:13;17.00;99.90
26954;DHT22;14508;50.924;11.600;2023-09-19T04:12:51;17.00;99.90
26954;DHT22;14508;50.924;11.600;2023-09-19T04:15:22;16.90;99.90
26954;DHT22;14508;50.924;11.600;2023-09-19T04:17:52;16.80;99.90
26954;DHT22;14508;50.924;11.600;2023-09-19T04:20:21;16.70;99.90
26954;DHT22;14508;50.924;11.600;2023-09-19T04:22:50;16.60;99.90
26954;DHT22;14508;50.924;11.600;2023-09-19T04:25:18;16.50;99.90
26954;DHT22;14508;50.924;11.600;2023-09-19T04:27:47;16.40;99.90
26954;DHT22;14508;50.924;11.600;2023-09-19T04:30:17;16.40;99.90
26954;DHT22;14508;50.924;11.600;2023-09-19T04:32:44;16.30;99.90
26954;DHT22;14508;50.924;11.600;2023-09-19T04:35:18;16.30;99.90
26954;DHT22;14508;50.924;11.600;2023-09-19T04:37:45;16.20;99.90
26954;DHT22;14508;50.924;11.600;2023-09-19T04:40:15;16.20;99.90
26954;DHT22;14508;50.924;11.600;2023-09-19T04:42:45;16.10;99.90
26954;DHT22;14508;50.924;11.600;2023-09-19T04:45:13;16.10;99.90
26954;DHT22;14508;50.924;11.600;2023-09-19T04:47:42;16.10;99.90
26954;DHT22;14508;50.924;11.600;2023-09-19T04:50:11;16.10;99.90
26954;DHT22;14508;50.924;11.600;2023-09-19T04:52:44;16.10;99.90
26954;DHT22;14508;50.924;11.600;2023-09-19T04:55:12;16.10;99.90
26954;DHT22;14508;50.924;11.600;2023-09-19T04:57:44;16.10;99.90
26954;DHT22;14508;50.924;11.600;2023-09-19T05:00:13;16.10;99.90
26954;DHT22;14508;50.924;11.600;2023-09-19T05:02:44;16.10;99.90
26954;DHT22;14508;50.924;11.600;2023-09-19T05:05:13;16.10;99.90
26954;DHT22;14508;50.924;11.600;2023-09-19T05:07:42;16.10;99.90
26954;DHT22;14508;50.924;11.600;2023-09-19T05:10:10;16.10;99.90
26954;DHT22;14508;50.924;11.600;2023-09-19T05:12:39;16.00;99.90
26954;DHT22;14508;50.924;11.600;2023-09-19T05:15:08;15.90;99.90
26954;DHT22;14508;50.924;11.600;2023-09-19T05:17:36;15.90;99.90
26954;DHT22;14508;50.924;11.600;2023-09-19T05:20:07;15.80;99.90
26954;DHT22;14508;50.924;11.600;2023-09-19T05:22:39;15.80;99.90
26954;DHT22;14508;50.924;11.600;2023-09-19T05:25:08;15.70;99.90
26954;DHT22;14508;50.924;11.600;2023-09-19T05:27:36;15.70;99.90
26954;DHT22;14508;50.924;11.600;2023-09-19T05:30:05;15.70;99.90
26954;DHT22;14508;50.924;11.600;2023-09-19T05:32:34;15.70;99.90
26954;DHT22;14508;50.924;11.600;2023-09-19T05:35:02;15.70;99.90
26954;DHT22;14508;50.924;11.600;2023-09-19T05:37:32;15.60;99.90
26954;DHT22;14508;50.924;11.600;2023-09-19T05:40:00;15.70;99.90
26954;DHT22;14508;50.924;11.600;2023-09-19T05:42:28;15.70;99.90
26954;DHT22;14508;50.924;11.600;2023-09-19T05:44:56;15.70;99.90
26954;DHT22;14508;50.924;11.600;2023-09-19T05:47:25;15.70;99.90
26954;DHT22;14508;50.924;11.600;2023-09-19T05:49:53;15.70;99.90
26954;DHT22;14508;50.924;11.600;2023-09-19T05:52:21;15.70;99.90
26954;DHT22;14508;50.924;11.600;2023-09-19T05:54:50;15.70;99.90
26954;DHT22;14508;50.924;11.600;2023-09-19T05:57:18;15.80;99.90
26954;DHT22;14508;50.924;11.600;2023-09-19T05:59:46;15.90;99.90
26954;DHT22;14508;50.924;11.600;2023-09-19T06:02:16;16.00;99.90
26954;DHT22;14508;50.924;11.600;2023-09-19T06:04:46;16.00;99.90
26954;DHT22;14508;50.924;11.600;2023-09-19T06:07:15;16.10;99.90
26954;DHT22;14508;50.924;11.600;2023-09-19T06:09:43;16.20;99.90
26954;DHT22;14508;50.924;11.600;2023-09-19T06:12:13;16.30;99.90
26954;DHT22;14508;50.924;11.600;2023-09-19T06:14:44;16.40;99.90
26954;DHT22;14508;50.924;11.600;2023-09-19T06:17:11;16.50;99.90
26954;DHT22;14508;50.924;11.600;2023-09-19T06:19:39;16.70;99.90
26954;DHT22;14508;50.924;11.600;2023-09-19T06:22:15;16.70;99.90
26954;DHT22;14508;50.924;11.600;2023-09-19T06:24:45;16.90;99.90
26954;DHT22;14508;50.924;11.600;2023-09-19T06:27:15;17.10;99.90
26954;DHT22;14508;50.924;11.600;2023-09-19T06:29:43;17.20;99.90
26954;DHT22;14508;50.924;11.600;2023-09-19T06:32:10;17.40;99.90
26954;DHT22;14508;50.924;11.600;2023-09-19T06:34:39;17.60;99.90
26954;DHT22;14508;50.924;11.600;2023-09-19T06:37:10;17.70;99.90
26954;DHT22;14508;50.924;11.600;2023-09-19T06:39:38;17.90;99.90
26954;DHT22;14508;50.924;11.600;2023-09-19T06:42:06;18.00;99.90
26954;DHT22;14508;50.924;11.600;2023-09-19T06:44:37;18.10;99.90
26954;DHT22;14508;50.924;11.600;2023-09-19T06:47:05;18.20;99.90
26954;DHT22;14508;50.924;11.600;2023-09-19T06:49:33;18.30;99.90
26954;DHT22;14508;50.924;11.600;2023-09-19T06:52:02;18.30;99.90
26954;DHT22;14508;50.924;11.600;2023-09-19T06:54:31;18.40;99.90
26954;DHT22;14508;50.924;11.600;2023-09-19T06:57:00;18.50;99.90
26954;DHT22;14508;50.924;11.600;2023-09-19T06:59:29;18.50;99.90
26954;DHT22;14508;50.924;11.600;2023-09-19T07:02:00;18.50;99.90
26954;DHT22;14508;50.924;11.600;2023-09-19T07:04:29;18.60;99.90
26954;DHT22;14508;50.924;11.600;2023-09-19T07:06:57;18.60;99.90
26954;DHT22;14508;50.924;11.600;2023-09-19T07:09:25;18.60;99.90
26954;DHT22;14508;50.924;11.600;2023-09-19T07:11:54;18.60;99.90
26954;DHT22;14508;50.924;11.600;2023-09-19T07:14:22;18.70;99.90
26954;DHT22;14508;50.924;11.600;2023-09-19T07:16:50;18.90;99.90
26954;DHT22;14508;50.924;11.600;2023-09-19T07:19:20;18.90;99.90
26954;DHT22;14508;50.924;11.600;2023-09-19T07:21:48;19.00;99.90
26954;DHT22;14508;50.924;11.600;2023-09-19T07:24:17;19.10;99.90
26954;DHT22;14508;50.924;11.600;2023-09-19T07:26:45;19.30;99.90
26954;DHT22;14508;50.924;11.600;2023-09-19T07:29:13;19.40;99.90
26954;DHT22;14508;50.924;11.600;2023-09-19T07:31:41;19.50;99.90
26954;DHT22;14508;50.924;11.600;2023-09-19T07:34:11;19.60;99.90
26954;DHT22;14508;50.924;11.600;2023-09-19T07:36:42;19.60;99.60
26954;DHT22;14508;50.924;11.600;2023-09-19T07:39:10;19.70;98.70
26954;DHT22;14508;50.924;11.600;2023-09-19T07:41:48;19.70;97.40
26954;DHT22;14508;50.924;11.600;2023-09-19T07:44:17;19.80;97.00
26954;DHT22;14508;50.924;11.600;2023-09-19T07:46:46;19.70;95.80
26954;DHT22;14508;50.924;11.600;2023-09-19T07:49:17;19.70;95.80
26954;DHT22;14508;50.924;11.600;2023-09-19T07:51:47;19.70;94.50
26954;DHT22;14508;50.924;11.600;2023-09-19T07:54:15;19.70;93.90
26954;DHT22;14508;50.924;11.600;2023-09-19T07:56:43;19.60;93.50
26954;DHT22;14508;50.924;11.600;2023-09-19T07:59:12;19.50;93.40
26954;DHT22;14508;50.924;11.600;2023-09-19T08:01:40;19.50;92.70
26954;DHT22;14508;50.924;11.600;2023-09-19T08:04:10;19.50;93.30
26954;DHT22;14508;50.924;11.600;2023-09-19T08:06:38;19.60;93.40
26954;DHT22;14508;50.924;11.600;2023-09-19T08:09:07;19.70;93.40
26954;DHT22;14508;50.924;11.600;2023-09-19T08:11:37;19.70;93.10
26954;DHT22;14508;50.924;11.600;2023-09-19T08:14:07;19.90;93.10
26954;DHT22;14508;50.924;11.600;2023-09-19T08:16:35;20.00;92.90
26954;DHT22;14508;50.924;11.600;2023-09-19T08:19:04;20.00;92.20
26954;DHT22;14508;50.924;11.600;2023-09-19T08:21:32;20.10;92.00
26954;DHT22;14508;50.924;11.600;2023-09-19T08:24:00;20.20;91.80
26954;DHT22;14508;50.924;11.600;2023-09-19T08:26:32;20.30;90.40
26954;DHT22;14508;50.924;11.600;2023-09-19T08:29:00;20.30;90.10
26954;DHT22;14508;50.924;11.600;2023-09-19T08:31:32;20.20;90.10
26954;DHT22;14508;50.924;11.600;2023-09-19T08:34:01;20.00;89.10
26954;DHT22;14508;50.924;11.600;2023-09-19T08:36:29;19.90;90.00
26954;DHT22;14508;50.924;11.600;2023-09-19T08:38:57;20.00;90.40
26954;DHT22;14508;50.924;11.600;2023-09-19T08:41:25;20.00;90.40
26954;DHT22;14508;50.924;11.600;2023-09-19T08:43:58;20.00;90.00
26954;DHT22;14508;50.924;11.600;2023-09-19T08:46:30;20.10;89.60
26954;DHT22;14508;50.924;11.600;2023-09-19T08:49:03;20.00;89.90
26954;DHT22;14508;50.924;11.600;2023-09-19T08:51:39;20.00;90.10
26954;DHT22;14508;50.924;11.600;2023-09-19T08:54:20;20.00;88.00
26954;DHT22;14508;50.924;11.600;2023-09-19T08:56:50;19.90;86.70
26954;DHT22;14508;50.924;11.600;2023-09-19T08:59:21;19.90;87.20
26954;DHT22;14508;50.924;11.600;2023-09-19T09:01:53;19.90;88.10
26954;DHT22;14508;50.924;11.600;2023-09-19T09:04:22;19.90;87.60
26954;DHT22;14508;50.924;11.600;2023-09-19T09:06:53;20.00;87.00
26954;DHT22;14508;50.924;11.600;2023-09-19T09:09:21;20.00;86.00
26954;DHT22;14508;50.924;11.600;2023-09-19T09:11:50;20.10;85.90
26954;DHT22;14508;50.924;11.600;2023-09-19T09:14:21;20.10;84.90
26954;DHT22;14508;50.924;11.600;2023-09-19T09:16:50;20.20;85.50
26954;DHT22;14508;50.924;11.600;2023-09-19T09:19:18;20.30;85.80
26954;DHT22;14508;50.924;11.600;2023-09-19T09:21:52;20.30;84.00
26954;DHT22;14508;50.924;11.600;2023-09-19T09:24:26;20.30;80.80
26954;DHT22;14508;50.924;11.600;2023-09-19T09:26:55;20.30;79.30
26954;DHT22;14508;50.924;11.600;2023-09-19T09:29:41;20.20;79.90
26954;DHT22;14508;50.924;11.600;2023-09-19T09:32:18;20.30;78.40
26954;DHT22;14508;50.924;11.600;2023-09-19T09:34:49;20.30;77.60
26954;DHT22;14508;50.924;11.600;2023-09-19T09:37:18;20.30;77.60
26954;DHT22;14508;50.924;11.600;2023-09-19T09:39:51;20.20;76.80
26954;DHT22;14508;50.924;11.600;2023-09-19T09:42:30;20.30;71.00
26954;DHT22;14508;50.924;11.600;2023-09-19T09:45:17;20.30;66.60
26954;DHT22;14508;50.924;11.600;2023-09-19T09:47:55;20.50;60.90
26954;DHT22;14508;50.924;11.600;2023-09-19T09:50:27;20.40;57.30
26954;DHT22;14508;50.924;11.600;2023-09-19T09:53:19;20.40;55.80
26954;DHT22;14508;50.924;11.600;2023-09-19T09:55:58;20.50;56.40
26954;DHT22;14508;50.924;11.600;2023-09-19T09:58:27;20.60;56.50
26954;DHT22;14508;50.924;11.600;2023-09-19T10:00:58;20.80;56.50
26954;DHT22;14508;50.924;11.600;2023-09-19T10:03:34;20.90;55.70
26954;DHT22;14508;50.924;11.600;2023-09-19T10:06:07;21.00;55.70
26954;DHT22;14508;50.924;11.600;2023-09-19T10:09:00;21.10;55.10
26954;DHT22;14508;50.924;11.600;2023-09-19T10:11:40;21.20;54.50
26954;DHT22;14508;50.924;11.600;2023-09-19T10:14:11;21.20;55.10
26954;DHT22;14508;50.924;11.600;2023-09-19T10:16:45;21.30;55.00
26954;DHT22;14508;50.924;11.600;2023-09-19T10:19:18;21.40;55.90
26954;DHT22;14508;50.924;11.600;2023-09-19T10:21:50;21.30;54.80
26954;DHT22;14508;50.924;11.600;2023-09-19T10:24:19;21.40;55.30
26954;DHT22;14508;50.924;11.600;2023-09-19T10:26:48;21.40;55.10
26954;DHT22;14508;50.924;11.600;2023-09-19T10:29:18;21.30;55.40
26954;DHT22;14508;50.924;11.600;2023-09-19T10:31:49;21.30;55.60
26954;DHT22;14508;50.924;11.600;2023-09-19T10:34:18;21.30;55.60
26954;DHT22;14508;50.924;11.600;2023-09-19T10:36:46;21.20;55.50
26954;DHT22;14508;50.924;11.600;2023-09-19T10:39:15;21.10;56.30
26954;DHT22;14508;50.924;11.600;2023-09-19T10:41:51;21.10;56.00
26954;DHT22;14508;50.924;11.600;2023-09-19T10:44:24;21.20;56.60
26954;DHT22;14508;50.924;11.600;2023-09-19T10:46:54;21.30;56.30
26954;DHT22;14508;50.924;11.600;2023-09-19T10:49:23;21.40;56.20
26954;DHT22;14508;50.924;11.600;2023-09-19T10:51:55;21.60;55.60
26954;DHT22;14508;50.924;11.600;2023-09-19T10:54:28;21.70;56.40
26954;DHT22;14508;50.924;11.600;2023-09-19T10:57:01;21.80;56.20
26954;DHT22;14508;50.924;11.600;2023-09-19T10:59:32;21.90;55.70
26954;DHT22;14508;50.924;11.600;2023-09-19T11:02:17;21.90;55.80
26954;DHT22;14508;50.924;11.600;2023-09-19T11:04:45;21.90;55.80
26954;DHT22;14508;50.924;11.600;2023-09-19T11:07:15;22.00;56.00
26954;DHT22;14508;50.924;11.600;2023-09-19T11:09:45;22.00;56.00
26954;DHT22;14508;50.924;11.600;2023-09-19T11:12:26;22.00;55.90
26954;DHT22;14508;50.924;11.600;2023-09-19T11:21:52;21.60;56.50
26954;DHT22;14508;50.924;11.600;2023-09-19T11:24:31;21.60;56.90
26954;DHT22;14508;50.924;11.600;2023-09-19T11:27:13;21.60;56.40
26954;DHT22;14508;50.924;11.600;2023-09-19T11:29:44;21.70;54.80
26954;DHT22;14508;50.924;11.600;2023-09-19T11:32:12;21.80;53.40
26954;DHT22;14508;50.924;11.600;2023-09-19T11:34:45;21.90;53.50
26954;DHT22;14508;50.924;11.600;2023-09-19T11:40:31;22.10;52.70
26954;DHT22;14508;50.924;11.600;2023-09-19T11:42:59;22.20;51.60
26954;DHT22;14508;50.924;11.600;2023-09-19T11:48:39;22.30;52.20
26954;DHT22;14508;50.924;11.600;2023-09-19T11:51:15;22.50;52.20
26954;DHT22;14508;50.924;11.600;2023-09-19T11:53:49;22.40;50.80
26954;DHT22;14508;50.924;11.600;2023-09-19T11:56:21;22.40;50.80
26954;DHT22;14508;50.924;11.600;2023-09-19T11:58:51;22.40;50.90
26954;DHT22;14508;50.924;11.600;2023-09-19T12:01:23;22.50;50.60
26954;DHT22;14508;50.924;11.600;2023-09-19T12:03:57;22.50;50.30
26954;DHT22;14508;50.924;11.600;2023-09-19T12:06:26;22.60;50.20
26954;DHT22;14508;50.924;11.600;2023-09-19T12:08:56;22.60;50.30
26954;DHT22;14508;50.924;11.600;2023-09-19T12:11:30;22.60;50.80
26954;DHT22;14508;50.924;11.600;2023-09-19T12:14:01;22.40;50.10
26954;DHT22;14508;50.924;11.600;2023-09-19T12:16:31;22.30;50.50
26954;DHT22;14508;50.924;11.600;2023-09-19T12:19:17;22.30;50.70
26954;DHT22;14508;50.924;11.600;2023-09-19T12:21:54;22.40;51.10
26954;DHT22;14508;50.924;11.600;2023-09-19T12:24:25;22.40;50.60
26954;DHT22;14508;50.924;11.600;2023-09-19T12:27:02;22.30;50.70
26954;DHT22;14508;50.924;11.600;2023-09-19T12:29:42;22.30;51.00
26954;DHT22;14508;50.924;11.600;2023-09-19T12:32:11;22.40;51.30
26954;DHT22;14508;50.924;11.600;2023-09-19T12:34:39;22.60;51.50
26954;DHT22;14508;50.924;11.600;2023-09-19T12:37:11;22.70;51.40
26954;DHT22;14508;50.924;11.600;2023-09-19T12:39:40;22.70;51.40
26954;DHT22;14508;50.924;11.600;2023-09-19T12:42:18;22.60;51.80
26954;DHT22;14508;50.924;11.600;2023-09-19T12:44:48;22.60;52.50
26954;DHT22;14508;50.924;11.600;2023-09-19T12:47:18;22.50;52.40
26954;DHT22;14508;50.924;11.600;2023-09-19T12:50:09;22.40;52.60
26954;DHT22;14508;50.924;11.600;2023-09-19T12:52:43;22.30;52.60
26954;DHT22;14508;50.924;11.600;2023-09-19T12:55:23;22.40;52.90
26954;DHT22;14508;50.924;11.600;2023-09-19T12:58:13;22.60;52.60
26954;DHT22;14508;50.924;11.600;2023-09-19T13:00:43;22.60;51.40
26954;DHT22;14508;50.924;11.600;2023-09-19T13:03:14;22.60;51.90
26954;DHT22;14508;50.924;11.600;2023-09-19T13:05:53;22.80;52.30
26954;DHT22;14508;50.924;11.600;2023-09-19T13:08:25;23.00;51.40
26954;DHT22;14508;50.924;11.600;2023-09-19T13:11:04;23.00;51.50
26954;DHT22;14508;50.924;11.600;2023-09-19T13:13:36;23.00;51.20
26954;DHT22;14508;50.924;11.600;2023-09-19T13:16:04;23.10;51.60
26954;DHT22;14508;50.924;11.600;2023-09-19T13:18:42;23.30;51.30
26954;DHT22;14508;50.924;11.600;2023-09-19T13:21:14;23.50;51.00
26954;DHT22;14508;50.924;11.600;2023-09-19T13:23:51;23.50;49.60
26954;DHT22;14508;50.924;11.600;2023-09-19T13:26:19;23.30;49.60
26954;DHT22;14508;50.924;11.600;2023-09-19T13:28:50;23.00;49.10
26954;DHT22;14508;50.924;11.600;2023-09-19T13:31:19;22.80;49.50
26954;DHT22;14508;50.924;11.600;2023-09-19T13:33:48;22.70;48.90
26954;DHT22;14508;50.924;11.600;2023-09-19T13:36:17;22.80;49.30
26954;DHT22;14508;50.924;11.600;2023-09-19T13:38:45;22.80;49.20
26954;DHT22;14508;50.924;11.600;2023-09-19T13:41:15;22.70;48.70
26954;DHT22;14508;50.924;11.600;2023-09-19T13:43:44;22.60;49.10
26954;DHT22;14508;50.924;11.600;2023-09-19T13:46:16;22.50;49.30
26954;DHT22;14508;50.924;11.600;2023-09-19T13:48:52;22.50;49.50
26954;DHT22;14508;50.924;11.600;2023-09-19T13:51:21;22.40;49.30
26954;DHT22;14508;50.924;11.600;2023-09-19T13:53:50;22.30;49.30
26954;DHT22;14508;50.924;11.600;2023-09-19T13:56:18;22.20;49.30
26954;DHT22;14508;50.924;11.600;2023-09-19T13:58:46;22.10;49.00
26954;DHT22;14508;50.924;11.600;2023-09-19T14:01:15;22.10;49.20
26954;DHT22;14508;50.924;11.600;2023-09-19T14:03:44;22.00;48.80
26954;DHT22;14508;50.924;11.600;2023-09-19T14:06:16;22.00;49.20
26954;DHT22;14508;50.924;11.600;2023-09-19T14:08:45;22.10;49.50
26954;DHT22;14508;50.924;11.600;2023-09-19T14:11:14;22.10;49.40
26954;DHT22;14508;50.924;11.600;2023-09-19T14:13:43;22.10;49.70
26954;DHT22;14508;50.924;11.600;2023-09-19T14:16:18;22.20;49.80
26954;DHT22;14508;50.924;11.600;2023-09-19T14:18:49;22.30;49.40
26954;DHT22;14508;50.924;11.600;2023-09-19T14:21:17;22.30;50.00
26954;DHT22;14508;50.924;11.600;2023-09-19T14:23:45;22.40;50.20
26954;DHT22;14508;50.924;11.600;2023-09-19T14:26:13;22.40;50.10
26954;DHT22;14508;50.924;11.600;2023-09-19T14:28:42;22.50;49.90
26954;DHT22;14508;50.924;11.600;2023-09-19T14:31:11;22.50;49.30
26954;DHT22;14508;50.924;11.600;2023-09-19T14:33:41;22.50;49.40
26954;DHT22;14508;50.924;11.600;2023-09-19T14:36:11;22.50;49.70
26954;DHT22;14508;50.924;11.600;2023-09-19T14:38:40;22.60;49.80
26954;DHT22;14508;50.924;11.600;2023-09-19T14:41:08;22.60;49.90
26954;DHT22;14508;50.924;11.600;2023-09-19T14:43:36;22.60;49.60
26954;DHT22;14508;50.924;11.600;2023-09-19T14:46:04;22.60;49.40
26954;DHT22;14508;50.924;11.600;2023-09-19T14:48:34;22.60;49.10
26954;DHT22;14508;50.924;11.600;2023-09-19T14:51:04;22.50;48.90
26954;DHT22;14508;50.924;11.600;2023-09-19T14:53:33;22.50;48.30
26954;DHT22;14508;50.924;11.600;2023-09-19T14:56:01;22.30;48.40
26954;DHT22;14508;50.924;11.600;2023-09-19T14:58:31;22.30;48.90
26954;DHT22;14508;50.924;11.600;2023-09-19T15:01:04;22.20;49.10
26954;DHT22;14508;50.924;11.600;2023-09-19T15:03:32;22.20;49.30
26954;DHT22;14508;50.924;11.600;2023-09-19T15:06:03;22.20;49.60
26954;DHT22;14508;50.924;11.600;2023-09-19T15:08:32;22.10;49.20
26954;DHT22;14508;50.924;11.600;2023-09-19T15:11:01;22.10;49.30
26954;DHT22;14508;50.924;11.600;2023-09-19T15:13:34;22.00;49.10
26954;DHT22;14508;50.924;11.600;2023-09-19T15:16:03;22.00;49.40
26954;DHT22;14508;50.924;11.600;2023-09-19T15:18:31;22.00;49.50
26954;DHT22;14508;50.924;11.600;2023-09-19T15:21:00;22.00;49.50
26954;DHT22;14508;50.924;11.600;2023-09-19T15:23:30;22.00;49.40
26954;DHT22;14508;50.924;11.600;2023-09-19T15:25:59;21.90;49.80
26954;DHT22;14508;50.924;11.600;2023-09-19T15:28:28;21.90;49.50
26954;DHT22;14508;50.924;11.600;2023-09-19T15:31:00;21.70;48.70
26954;DHT22;14508;50.924;11.600;2023-09-19T15:33:29;21.70;49.10
26954;DHT22;14508;50.924;11.600;2023-09-19T15:36:02;21.70;49.80
26954;DHT22;14508;50.924;11.600;2023-09-19T15:38:55;21.70;49.70
26954;DHT22;14508;50.924;11.600;2023-09-19T15:41:24;21.70;48.30
26954;DHT22;14508;50.924;11.600;2023-09-19T15:43:52;21.60;48.50
26954;DHT22;14508;50.924;11.600;2023-09-19T15:46:21;21.50;48.60
26954;DHT22;14508;50.924;11.600;2023-09-19T15:48:49;21.50;48.40
26954;DHT22;14508;50.924;11.600;2023-09-19T15:51:17;21.40;48.80